sensor_id;sensor_type;location;lat;lon;timestamp;pressure;altitude;pressure_sealevel;temperature;humidity
62942;BME280;49042;47.318;19.874;2024-01-15T00:01:09;99362.06;;;0.18;100.00
62942;BME280;49042;47.318;19.874;2024-01-15T00:04:11;99352.72;;;0.04;100.00
62942;BME280;49042;47.318;19.874;2024-01-15T00:07:13;99345.56;;;-0.02;100.00
62942;BME280;49042;47.318;19.874;2024-01-15T00:10:14;99341.22;;;0.44;100.00
62942;BME280;49042;47.318;19.874;2024-01-15T00:13:16;99326.09;;;0.17;100.00
62942;BME280;49042;47.318;19.874;2024-01-15T00:16:18;99324.69;;;0.39;100.00
62942;BME280;49042;47.318;19.874;2024-01-15T00:19:21;99316.03;;;0.53;100.00
62942;BME280;49042;47.318;19.874;2024-01-15T00:22:25;99310.28;;;0.58;100.00
62942;BME280;49042;47.318;19.874;2024-01-15T00:25:27;99309.78;;;0.82;100.00
62942;BME280;49042;47.318;19.874;2024-01-15T00:28:29;99309.16;;;0.69;100.00
62942;BME280;49042;47.318;19.874;2024-01-15T00:31:31;99311.72;;;0.69;100.00
62942;BME280;49042;47.318;19.874;2024-01-15T00:34:33;99299.25;;;0.27;100.00
62942;BME280;49042;47.318;19.874;2024-01-15T00:37:35;99294.31;;;-0.17;100.00
62942;BME280;49042;47.318;19.874;2024-01-15T00:40:36;99298.50;;;-0.19;100.00
62942;BME280;49042;47.318;19.874;2024-01-15T00:43:39;99296.66;;;-0.22;100.00
62942;BME280;49042;47.318;19.874;2024-01-15T00:46:44;99298.88;;;-0.59;100.00
62942;BME280;49042;47.318;19.874;2024-01-15T00:49:47;99290.81;;;-0.35;100.00
62942;BME280;49042;47.318;19.874;2024-01-15T00:52:49;99286.91;;;-0.28;100.00
62942;BME280;49042;47.318;19.874;2024-01-15T00:55:50;99279.53;;;-0.53;100.00
62942;BME280;49042;47.318;19.874;2024-01-15T00:58:52;99281.00;;;-0.27;100.00
62942;BME280;49042;47.318;19.874;2024-01-15T01:01:54;99282.31;;;-0.18;100.00
62942;BME280;49042;47.318;19.874;2024-01-15T01:04:55;99275.09;;;0.06;100.00
62942;BME280;49042;47.318;19.874;2024-01-15T01:07:57;99263.41;;;0.12;100.00
62942;BME280;49042;47.318;19.874;2024-01-15T01:10:59;99262.44;;;-0.23;100.00
62942;BME280;49042;47.318;19.874;2024-01-15T01:14:00;99260.44;;;-0.28;100.00
62942;BME280;49042;47.318;19.874;2024-01-15T01:17:03;99256.75;;;-0.17;100.00
62942;BME280;49042;47.318;19.874;2024-01-15T01:20:05;99243.12;;;-0.48;100.00
62942;BME280;49042;47.318;19.874;2024-01-15T01:23:10;99234.03;;;-0.42;100.00
62942;BME280;49042;47.318;19.874;2024-01-15T01:26:15;99231.37;;;-0.12;100.00
62942;BME280;49042;47.318;19.874;2024-01-15T01:29:17;99218.72;;;-0.41;100.00
62942;BME280;49042;47.318;19.874;2024-01-15T01:32:19;99218.53;;;-0.29;100.00
62942;BME280;49042;47.318;19.874;2024-01-15T01:35:22;99201.94;;;-0.04;100.00
62942;BME280;49042;47.318;19.874;2024-01-15T01:38:23;99207.31;;;0.35;100.00
62942;BME280;49042;47.318;19.874;2024-01-15T01:41:25;99196.75;;;0.45;100.00
62942;BME280;49042;47.318;19.874;2024-01-15T01:44:27;99183.19;;;0.31;100.00
62942;BME280;49042;47.318;19.874;2024-01-15T01:47:29;99183.50;;;0.04;100.00
62942;BME280;49042;47.318;19.874;2024-01-15T01:50:31;99186.63;;;0.48;100.00
62942;BME280;49042;47.318;19.874;2024-01-15T01:53:34;99176.84;;;0.41;100.00
62942;BME280;49042;47.318;19.874;2024-01-15T01:56:36;99170.34;;;-0.03;100.00
62942;BME280;49042;47.318;19.874;2024-01-15T01:59:38;99169.56;;;-0.50;100.00
62942;BME280;49042;47.318;19.874;2024-01-15T02:02:40;99173.38;;;-0.10;100.00
62942;BME280;49042;47.318;19.874;2024-01-15T02:05:43;99169.75;;;0.35;100.00
62942;BME280;49042;47.318;19.874;2024-01-15T02:08:46;99171.66;;;-0.11;100.00
62942;BME280;49042;47.318;19.874;2024-01-15T02:11:48;99175.25;;;-0.07;100.00
62942;BME280;49042;47.318;19.874;2024-01-15T02:14:50;99175.56;;;0.16;100.00
62942;BME280;49042;47.318;19.874;2024-01-15T02:18:02;99178.00;;;-0.36;100.00
62942;BME280;49042;47.318;19.874;2024-01-15T02:21:05;99181.44;;;-0.04;100.00
62942;BME280;49042;47.318;19.874;2024-01-15T02:24:06;99192.47;;;0.12;100.00
62942;BME280;49042;47.318;19.874;2024-01-15T02:27:09;99174.53;;;-0.05;100.00
62942;BME280;49042;47.318;19.874;2024-01-15T02:30:11;99167.94;;;0.01;100.00
62942;BME280;49042;47.318;19.874;2024-01-15T02:33:14;99153.69;;;0.23;100.00
62942;BME280;49042;47.318;19.874;2024-01-15T02:36:16;99143.75;;;0.29;100.00
62942;BME280;49042;47.318;19.874;2024-01-15T02:39:18;99142.94;;;0.47;100.00
62942;BME280;49042;47.318;19.874;2024-01-15T02:42:19;99132.13;;;0.36;100.00
62942;BME280;49042;47.318;19.874;2024-01-15T02:45:22;99133.59;;;0.30;100.00
62942;BME280;49042;47.318;19.874;2024-01-15T02:48:24;99122.75;;;0.53;100.00
62942;BME280;49042;47.318;19.874;2024-01-15T02:51:26;99116.22;;;0.43;100.00
62942;BME280;49042;47.318;19.874;2024-01-15T02:54:28;99115.34;;;0.42;100.00
62942;BME280;49042;47.318;19.874;2024-01-15T02:57:29;99114.09;;;0.01;100.00
62942;BME280;49042;47.318;19.874;2024-01-15T03:00:31;99106.53;;;-0.15;100.00
62942;BME280;49042;47.318;19.874;2024-01-15T03:03:33;99099.09;;;-0.59;100.00
62942;BME280;49042;47.318;19.874;2024-01-15T03:06:35;99089.22;;;-0.19;100.00
62942;BME280;49042;47.318;19.874;2024-01-15T03:09:37;99091.97;;;-0.48;100.00
62942;BME280;49042;47.318;19.874;2024-01-15T03:12:39;99098.25;;;-0.42;100.00
62942;BME280;49042;47.318;19.874;2024-01-15T03:15:42;99096.22;;;-0.48;100.00
62942;BME280;49042;47.318;19.874;2024-01-15T03:18:44;99094.78;;;0.07;100.00
62942;BME280;49042;47.318;19.874;2024-01-15T03:21:46;99083.28;;;-0.18;100.00
62942;BME280;49042;47.318;19.874;2024-01-15T03:24:48;99078.13;;;-0.35;100.00
62942;BME280;49042;47.318;19.874;2024-01-15T03:27:50;99071.81;;;-0.41;100.00
62942;BME280;49042;47.318;19.874;2024-01-15T03:30:52;99069.88;;;-0.46;100.00
62942;BME280;49042;47.318;19.874;2024-01-15T03:33:54;99064.84;;;-0.61;100.00
62942;BME280;49042;47.318;19.874;2024-01-15T03:36:56;99051.47;;;-0.55;100.00
62942;BME280;49042;47.318;19.874;2024-01-15T03:39:58;99072.91;;;-0.53;100.00
62942;BME280;49042;47.318;19.874;2024-01-15T03:42:59;99082.47;;;-0.50;100.00
62942;BME280;49042;47.318;19.874;2024-01-15T03:46:02;99056.94;;;-0.81;100.00
62942;BME280;49042;47.318;19.874;2024-01-15T03:49:03;99061.06;;;-0.68;100.00
62942;BME280;49042;47.318;19.874;2024-01-15T03:52:05;99059.09;;;-0.57;100.00
62942;BME280;49042;47.318;19.874;2024-01-15T03:55:07;99063.34;;;-0.40;100.00
62942;BME280;49042;47.318;19.874;2024-01-15T03:58:09;99058.31;;;-0.22;100.00
62942;BME280;49042;47.318;19.874;2024-01-15T04:01:11;99052.19;;;-0.24;100.00
62942;BME280;49042;47.318;19.874;2024-01-15T04:04:13;99053.19;;;-0.22;100.00
62942;BME280;49042;47.318;19.874;2024-01-15T04:07:18;99047.00;;;-0.26;100.00
62942;BME280;49042;47.318;19.874;2024-01-15T04:10:19;99047.81;;;-0.27;100.00
62942;BME280;49042;47.318;19.874;2024-01-15T04:13:21;99044.09;;;-0.66;100.00
62942;BME280;49042;47.318;19.874;2024-01-15T04:16:23;99039.28;;;-0.59;100.00
62942;BME280;49042;47.318;19.874;2024-01-15T04:19:25;99027.53;;;-0.39;100.00
62942;BME280;49042;47.318;19.874;2024-01-15T04:22:27;99029.38;;;-0.53;100.00
62942;BME280;49042;47.318;19.874;2024-01-15T04:25:28;99027.78;;;-0.34;100.00
62942;BME280;49042;47.318;19.874;2024-01-15T04:28:30;99026.09;;;-0.34;100.00
62942;BME280;49042;47.318;19.874;2024-01-15T04:31:32;99025.94;;;-0.53;100.00
62942;BME280;49042;47.318;19.874;2024-01-15T04:34:34;99026.91;;;-0.51;100.00
62942;BME280;49042;47.318;19.874;2024-01-15T04:37:36;99008.97;;;-0.35;100.00
62942;BME280;49042;47.318;19.874;2024-01-15T04:40:37;99010.56;;;-1.02;100.00
62942;BME280;49042;47.318;19.874;2024-01-15T04:43:39;99016.84;;;-0.80;100.00
62942;BME280;49042;47.318;19.874;2024-01-15T04:46:41;99018.84;;;-0.91;100.00
62942;BME280;49042;47.318;19.874;2024-01-15T04:49:45;99004.34;;;-1.08;100.00
62942;BME280;49042;47.318;19.874;2024-01-15T04:52:46;99013.78;;;-1.06;100.00
62942;BME280;49042;47.318;19.874;2024-01-15T04:55:48;99025.53;;;-1.10;100.00
62942;BME280;49042;47.318;19.874;2024-01-15T04:58:50;99017.19;;;-1.06;100.00
62942;BME280;49042;47.318;19.874;2024-01-15T05:01:51;99022.28;;;-1.23;100.00
62942;BME280;49042;47.318;19.874;2024-01-15T05:04:53;99002.97;;;-1.33;100.00
62942;BME280;49042;47.318;19.874;2024-01-15T05:07:55;98992.69;;;-1.34;100.00
62942;BME280;49042;47.318;19.874;2024-01-15T05:10:57;98997.16;;;-1.30;100.00
62942;BME280;49042;47.318;19.874;2024-01-15T05:13:59;98997.81;;;-1.34;100.00
62942;BME280;49042;47.318;19.874;2024-01-15T05:17:00;98997.09;;;-1.32;100.00
62942;BME280;49042;47.318;19.874;2024-01-15T05:20:02;98999.75;;;-1.60;100.00
62942;BME280;49042;47.318;19.874;2024-01-15T05:23:05;98994.97;;;-1.39;100.00
62942;BME280;49042;47.318;19.874;2024-01-15T05:26:06;98992.78;;;-1.48;100.00
62942;BME280;49042;47.318;19.874;2024-01-15T05:29:10;98997.47;;;-1.56;100.00
62942;BME280;49042;47.318;19.874;2024-01-15T05:32:12;99012.09;;;-1.38;100.00
62942;BME280;49042;47.318;19.874;2024-01-15T05:35:13;99005.31;;;-1.53;100.00
62942;BME280;49042;47.318;19.874;2024-01-15T05:38:16;99010.16;;;-1.42;100.00
62942;BME280;49042;47.318;19.874;2024-01-15T05:41:18;99009.66;;;-1.67;100.00
62942;BME280;49042;47.318;19.874;2024-01-15T05:44:19;99025.34;;;-1.60;100.00
62942;BME280;49042;47.318;19.874;2024-01-15T05:47:21;99021.72;;;-1.79;100.00
62942;BME280;49042;47.318;19.874;2024-01-15T05:50:23;99025.34;;;-1.60;100.00
62942;BME280;49042;47.318;19.874;2024-01-15T05:53:25;99023.03;;;-1.86;100.00
62942;BME280;49042;47.318;19.874;2024-01-15T05:56:26;99014.06;;;-1.95;100.00
62942;BME280;49042;47.318;19.874;2024-01-15T05:59:28;99008.66;;;-1.99;100.00
62942;BME280;49042;47.318;19.874;2024-01-15T06:02:33;99006.97;;;-2.14;100.00
62942;BME280;49042;47.318;19.874;2024-01-15T06:05:35;99025.03;;;-2.11;100.00
62942;BME280;49042;47.318;19.874;2024-01-15T06:08:37;99017.94;;;-2.01;100.00
62942;BME280;49042;47.318;19.874;2024-01-15T06:11:39;99025.13;;;-1.94;100.00
62942;BME280;49042;47.318;19.874;2024-01-15T06:14:41;99026.44;;;-2.01;100.00
62942;BME280;49042;47.318;19.874;2024-01-15T06:17:44;99035.00;;;-2.16;100.00
62942;BME280;49042;47.318;19.874;2024-01-15T06:20:46;99032.81;;;-2.09;100.00
62942;BME280;49042;47.318;19.874;2024-01-15T06:23:47;99037.91;;;-2.09;100.00
62942;BME280;49042;47.318;19.874;2024-01-15T06:26:49;99037.38;;;-2.03;100.00
62942;BME280;49042;47.318;19.874;2024-01-15T06:29:51;99036.84;;;-1.98;100.00
62942;BME280;49042;47.318;19.874;2024-01-15T06:32:52;99043.59;;;-1.85;100.00
62942;BME280;49042;47.318;19.874;2024-01-15T06:35:54;99043.66;;;-1.83;100.00
62942;BME280;49042;47.318;19.874;2024-01-15T06:38:57;99023.38;;;-1.95;100.00
62942;BME280;49042;47.318;19.874;2024-01-15T06:41:59;99037.66;;;-1.99;100.00
62942;BME280;49042;47.318;19.874;2024-01-15T06:45:00;99039.16;;;-1.72;100.00
62942;BME280;49042;47.318;19.874;2024-01-15T06:48:03;99050.88;;;-1.30;100.00
62942;BME280;49042;47.318;19.874;2024-01-15T06:51:05;99063.37;;;-1.20;100.00
62942;BME280;49042;47.318;19.874;2024-01-15T06:54:07;99059.69;;;-1.10;100.00
62942;BME280;49042;47.318;19.874;2024-01-15T06:57:08;99046.16;;;-0.75;100.00
62942;BME280;49042;47.318;19.874;2024-01-15T07:00:11;99037.56;;;-0.44;100.00
62942;BME280;49042;47.318;19.874;2024-01-15T07:03:13;99032.13;;;-0.50;100.00
62942;BME280;49042;47.318;19.874;2024-01-15T07:06:14;99035.78;;;-0.11;100.00
62942;BME280;49042;47.318;19.874;2024-01-15T07:09:16;99046.03;;;0.06;100.00
62942;BME280;49042;47.318;19.874;2024-01-15T07:12:18;99045.38;;;0.10;100.00
62942;BME280;49042;47.318;19.874;2024-01-15T07:15:20;99043.47;;;0.96;100.00
62942;BME280;49042;47.318;19.874;2024-01-15T07:18:22;99042.25;;;1.64;100.00
62942;BME280;49042;47.318;19.874;2024-01-15T07:21:23;99036.50;;;1.90;100.00
62942;BME280;49042;47.318;19.874;2024-01-15T07:24:25;99038.59;;;2.40;100.00
62942;BME280;49042;47.318;19.874;2024-01-15T07:27:27;99032.00;;;2.92;100.00
62942;BME280;49042;47.318;19.874;2024-01-15T07:30:29;99048.37;;;2.94;100.00
62942;BME280;49042;47.318;19.874;2024-01-15T07:33:31;99031.91;;;5.78;98.73
62942;BME280;49042;47.318;19.874;2024-01-15T07:36:32;99029.44;;;6.16;83.50
62942;BME280;49042;47.318;19.874;2024-01-15T07:39:34;99022.66;;;5.88;83.25
62942;BME280;49042;47.318;19.874;2024-01-15T07:42:36;99038.75;;;4.60;98.95
62942;BME280;49042;47.318;19.874;2024-01-15T07:45:38;99039.28;;;4.76;100.00
62942;BME280;49042;47.318;19.874;2024-01-15T07:48:42;99045.53;;;4.04;100.00
62942;BME280;49042;47.318;19.874;2024-01-15T07:51:45;99030.75;;;4.00;100.00
62942;BME280;49042;47.318;19.874;2024-01-15T07:54:47;99019.31;;;3.42;100.00
62942;BME280;49042;47.318;19.874;2024-01-15T07:57:49;99045.75;;;2.92;100.00
62942;BME280;49042;47.318;19.874;2024-01-15T08:01:11;99034.47;;;3.12;100.00
62942;BME280;49042;47.318;19.874;2024-01-15T08:04:13;99044.88;;;3.15;100.00
62942;BME280;49042;47.318;19.874;2024-01-15T08:07:16;99036.62;;;3.71;100.00
62942;BME280;49042;47.318;19.874;2024-01-15T08:10:19;99044.19;;;3.42;100.00
62942;BME280;49042;47.318;19.874;2024-01-15T08:13:21;99037.75;;;4.03;100.00
62942;BME280;49042;47.318;19.874;2024-01-15T08:16:23;99038.72;;;4.87;100.00
62942;BME280;49042;47.318;19.874;2024-01-15T08:19:26;99034.69;;;5.24;100.00
62942;BME280;49042;47.318;19.874;2024-01-15T08:22:28;99024.00;;;5.43;98.54
62942;BME280;49042;47.318;19.874;2024-01-15T08:25:32;99019.38;;;6.62;87.04
62942;BME280;49042;47.318;19.874;2024-01-15T08:28:34;99016.50;;;7.27;72.00
62942;BME280;49042;47.318;19.874;2024-01-15T08:31:39;99020.81;;;6.88;69.62
62942;BME280;49042;47.318;19.874;2024-01-15T08:34:41;99020.03;;;7.33;68.12
62942;BME280;49042;47.318;19.874;2024-01-15T08:37:49;99011.44;;;7.79;61.80
62942;BME280;49042;47.318;19.874;2024-01-15T08:40:51;99014.44;;;7.14;63.09
62942;BME280;49042;47.318;19.874;2024-01-15T08:43:55;99017.63;;;5.62;76.70
62942;BME280;49042;47.318;19.874;2024-01-15T08:46:56;99010.72;;;7.41;68.09
62942;BME280;49042;47.318;19.874;2024-01-15T08:49:58;99017.09;;;9.83;52.40
62942;BME280;49042;47.318;19.874;2024-01-15T08:53:00;99028.81;;;11.55;46.23
62942;BME280;49042;47.318;19.874;2024-01-15T08:56:02;99021.00;;;11.63;44.15
62942;BME280;49042;47.318;19.874;2024-01-15T08:59:04;99020.34;;;12.50;41.45
62942;BME280;49042;47.318;19.874;2024-01-15T09:02:06;99023.81;;;14.64;37.16
62942;BME280;49042;47.318;19.874;2024-01-15T09:05:09;99020.94;;;16.38;33.66
62942;BME280;49042;47.318;19.874;2024-01-15T09:08:11;99025.37;;;16.87;31.80
62942;BME280;49042;47.318;19.874;2024-01-15T09:11:13;99029.00;;;17.30;31.93
62942;BME280;49042;47.318;19.874;2024-01-15T09:14:14;99022.72;;;16.34;31.94
62942;BME280;49042;47.318;19.874;2024-01-15T09:17:20;99022.66;;;11.39;38.73
62942;BME280;49042;47.318;19.874;2024-01-15T09:20:23;99025.63;;;8.46;44.62
62942;BME280;49042;47.318;19.874;2024-01-15T09:23:25;99020.09;;;6.57;49.92
62942;BME280;49042;47.318;19.874;2024-01-15T09:26:29;99014.94;;;5.57;56.41
62942;BME280;49042;47.318;19.874;2024-01-15T09:29:31;99011.06;;;5.12;64.14
62942;BME280;49042;47.318;19.874;2024-01-15T09:32:33;99007.28;;;4.73;71.55
62942;BME280;49042;47.318;19.874;2024-01-15T09:35:35;99002.25;;;4.49;78.68
62942;BME280;49042;47.318;19.874;2024-01-15T09:38:37;98994.50;;;4.77;76.85
62942;BME280;49042;47.318;19.874;2024-01-15T09:41:39;98990.81;;;4.69;77.52
62942;BME280;49042;47.318;19.874;2024-01-15T09:44:41;98985.94;;;4.78;74.80
62942;BME280;49042;47.318;19.874;2024-01-15T09:47:43;98980.16;;;4.58;72.48
62942;BME280;49042;47.318;19.874;2024-01-15T09:50:47;98985.63;;;4.97;70.32
62942;BME280;49042;47.318;19.874;2024-01-15T09:53:50;98985.50;;;4.64;72.17
62942;BME280;49042;47.318;19.874;2024-01-15T09:56:52;98991.00;;;4.75;71.95
62942;BME280;49042;47.318;19.874;2024-01-15T09:59:55;98979.97;;;4.52;70.97
62942;BME280;49042;47.318;19.874;2024-01-15T10:02:59;98983.66;;;4.06;75.26
62942;BME280;49042;47.318;19.874;2024-01-15T10:06:01;98973.03;;;4.23;77.52
62942;BME280;49042;47.318;19.874;2024-01-15T10:09:04;98966.06;;;4.20;74.17
62942;BME280;49042;47.318;19.874;2024-01-15T10:12:07;98965.09;;;4.16;72.48
62942;BME280;49042;47.318;19.874;2024-01-15T10:15:10;98973.56;;;4.14;72.00
62942;BME280;49042;47.318;19.874;2024-01-15T10:18:15;98977.06;;;4.42;67.35
62942;BME280;49042;47.318;19.874;2024-01-15T10:21:17;98973.41;;;4.35;70.16
62942;BME280;49042;47.318;19.874;2024-01-15T10:24:19;98975.88;;;4.88;66.32
62942;BME280;49042;47.318;19.874;2024-01-15T10:27:21;98978.97;;;4.76;64.52
62942;BME280;49042;47.318;19.874;2024-01-15T10:30:24;98974.47;;;4.98;62.69
62942;BME280;49042;47.318;19.874;2024-01-15T10:33:26;98985.03;;;5.67;59.26
62942;BME280;49042;47.318;19.874;2024-01-15T10:36:29;98979.69;;;5.61;57.51
62942;BME280;49042;47.318;19.874;2024-01-15T10:39:30;98982.84;;;5.20;58.88
62942;BME280;49042;47.318;19.874;2024-01-15T10:42:33;98974.16;;;5.18;58.75
62942;BME280;49042;47.318;19.874;2024-01-15T10:45:35;98985.09;;;5.71;56.97
62942;BME280;49042;47.318;19.874;2024-01-15T10:48:36;98977.72;;;7.35;54.46
62942;BME280;49042;47.318;19.874;2024-01-15T10:51:39;98972.56;;;15.18;34.46
62942;BME280;49042;47.318;19.874;2024-01-15T10:54:43;98978.31;;;18.00;28.06
62942;BME280;49042;47.318;19.874;2024-01-15T10:57:48;98975.66;;;18.02;27.10
62942;BME280;49042;47.318;19.874;2024-01-15T11:00:51;98970.56;;;21.49;22.95
62942;BME280;49042;47.318;19.874;2024-01-15T11:03:54;98976.41;;;22.71;21.69
62942;BME280;49042;47.318;19.874;2024-01-15T11:06:57;98964.41;;;23.23;20.70
62942;BME280;49042;47.318;19.874;2024-01-15T11:09:59;98964.59;;;20.94;21.24
62942;BME280;49042;47.318;19.874;2024-01-15T11:13:01;98959.66;;;17.28;24.83
62942;BME280;49042;47.318;19.874;2024-01-15T11:16:06;98960.56;;;13.94;28.50
62942;BME280;49042;47.318;19.874;2024-01-15T11:19:08;98951.47;;;12.23;30.98
62942;BME280;49042;47.318;19.874;2024-01-15T11:22:48;98948.31;;;10.63;33.33
62942;BME280;49042;47.318;19.874;2024-01-15T11:25:50;98945.22;;;10.00;35.44
62942;BME280;49042;47.318;19.874;2024-01-15T11:28:52;98941.47;;;9.75;38.97
62942;BME280;49042;47.318;19.874;2024-01-15T11:34:57;98935.47;;;9.78;38.19
62942;BME280;49042;47.318;19.874;2024-01-15T11:38:01;98925.56;;;9.46;37.51
62942;BME280;49042;47.318;19.874;2024-01-15T11:41:13;98925.22;;;9.14;37.29
62942;BME280;49042;47.318;19.874;2024-01-15T11:44:16;98927.25;;;9.39;39.25
62942;BME280;49042;47.318;19.874;2024-01-15T11:50:46;98922.16;;;9.51;37.17
62942;BME280;49042;47.318;19.874;2024-01-15T11:53:52;98927.25;;;9.43;37.05
62942;BME280;49042;47.318;19.874;2024-01-15T11:57:00;98928.50;;;9.77;37.13
62942;BME280;49042;47.318;19.874;2024-01-15T12:00:08;98915.91;;;10.32;36.02
62942;BME280;49042;47.318;19.874;2024-01-15T12:03:10;98907.38;;;10.49;36.69
62942;BME280;49042;47.318;19.874;2024-01-15T12:06:12;98902.22;;;10.55;36.59
62942;BME280;49042;47.318;19.874;2024-01-15T12:09:14;98906.69;;;10.81;36.35
62942;BME280;49042;47.318;19.874;2024-01-15T12:12:24;98887.78;;;11.38;35.60
62942;BME280;49042;47.318;19.874;2024-01-15T12:15:29;98888.63;;;11.29;35.72
62942;BME280;49042;47.318;19.874;2024-01-15T12:18:31;98883.97;;;10.58;36.64
62942;BME280;49042;47.318;19.874;2024-01-15T12:21:33;98895.37;;;10.73;35.87
62942;BME280;49042;47.318;19.874;2024-01-15T12:24:35;98889.19;;;10.58;36.20
62942;BME280;49042;47.318;19.874;2024-01-15T12:27:37;98884.84;;;10.60;36.48
62942;BME280;49042;47.318;19.874;2024-01-15T12:30:39;98888.41;;;10.72;35.98
62942;BME280;49042;47.318;19.874;2024-01-15T12:33:41;98888.22;;;10.45;36.40
62942;BME280;49042;47.318;19.874;2024-01-15T12:36:46;98891.75;;;10.54;36.28
62942;BME280;49042;47.318;19.874;2024-01-15T12:39:48;98884.97;;;10.79;35.70
62942;BME280;49042;47.318;19.874;2024-01-15T12:42:50;98882.19;;;10.53;36.28
62942;BME280;49042;47.318;19.874;2024-01-15T12:45:52;98882.91;;;10.33;36.44
62942;BME280;49042;47.318;19.874;2024-01-15T12:48:55;98883.31;;;9.73;37.84
62942;BME280;49042;47.318;19.874;2024-01-15T12:51:58;98880.25;;;9.25;38.31
62942;BME280;49042;47.318;19.874;2024-01-15T12:55:00;98884.59;;;9.26;37.94
62942;BME280;49042;47.318;19.874;2024-01-15T12:58:01;98880.44;;;9.42;38.67
62942;BME280;49042;47.318;19.874;2024-01-15T13:01:03;98872.87;;;8.87;39.25
62942;BME280;49042;47.318;19.874;2024-01-15T13:04:06;98879.28;;;8.49;39.70
62942;BME280;49042;47.318;19.874;2024-01-15T13:07:10;98866.34;;;8.54;40.16
62942;BME280;49042;47.318;19.874;2024-01-15T13:10:12;98872.63;;;8.08;40.88
62942;BME280;49042;47.318;19.874;2024-01-15T13:13:14;98867.25;;;7.97;40.78
62942;BME280;49042;47.318;19.874;2024-01-15T13:16:16;98861.44;;;7.60;41.32
62942;BME280;49042;47.318;19.874;2024-01-15T13:19:17;98859.00;;;7.68;41.95
62942;BME280;49042;47.318;19.874;2024-01-15T13:22:20;98862.97;;;7.47;42.32
62942;BME280;49042;47.318;19.874;2024-01-15T13:25:24;98866.41;;;7.46;42.42
62942;BME280;49042;47.318;19.874;2024-01-15T13:28:26;98863.91;;;7.53;42.68
62942;BME280;49042;47.318;19.874;2024-01-15T13:31:28;98870.53;;;7.35;43.24
62942;BME280;49042;47.318;19.874;2024-01-15T13:34:30;98871.78;;;7.09;43.25
62942;BME280;49042;47.318;19.874;2024-01-15T13:37:34;98867.47;;;7.10;43.73
62942;BME280;49042;47.318;19.874;2024-01-15T13:40:36;98855.50;;;7.16;43.54
62942;BME280;49042;47.318;19.874;2024-01-15T13:43:37;98865.19;;;7.27;43.47
62942;BME280;49042;47.318;19.874;2024-01-15T13:46:39;98866.31;;;6.95;43.75
62942;BME280;49042;47.318;19.874;2024-01-15T13:49:41;98864.84;;;6.66;44.60
62942;BME280;49042;47.318;19.874;2024-01-15T13:52:42;98873.47;;;6.25;45.63
62942;BME280;49042;47.318;19.874;2024-01-15T13:55:44;98875.44;;;5.99;46.52
62942;BME280;49042;47.318;19.874;2024-01-15T13:58:46;98879.34;;;5.83;47.25
62942;BME280;49042;47.318;19.874;2024-01-15T14:01:49;98876.75;;;5.83;47.32
62942;BME280;49042;47.318;19.874;2024-01-15T14:04:51;98869.88;;;5.84;47.63
62942;BME280;49042;47.318;19.874;2024-01-15T14:07:53;98876.84;;;6.22;47.35
62942;BME280;49042;47.318;19.874;2024-01-15T14:10:54;98878.34;;;5.78;48.10
62942;BME280;49042;47.318;19.874;2024-01-15T14:13:58;98873.06;;;5.73;48.75
62942;BME280;49042;47.318;19.874;2024-01-15T14:17:00;98870.59;;;5.78;49.26
62942;BME280;49042;47.318;19.874;2024-01-15T14:20:02;98871.47;;;5.78;49.54
62942;BME280;49042;47.318;19.874;2024-01-15T14:23:07;98873.56;;;5.94;49.47
62942;BME280;49042;47.318;19.874;2024-01-15T14:26:08;98866.94;;;6.05;49.58
62942;BME280;49042;47.318;19.874;2024-01-15T14:29:10;98858.28;;;5.69;51.01
62942;BME280;49042;47.318;19.874;2024-01-15T14:32:12;98858.63;;;5.83;51.51
62942;BME280;49042;47.318;19.874;2024-01-15T14:35:14;98858.94;;;5.60;52.63
62942;BME280;49042;47.318;19.874;2024-01-15T14:38:16;98842.72;;;6.03;51.80
62942;BME280;49042;47.318;19.874;2024-01-15T14:41:18;98839.34;;;6.06;51.77
62942;BME280;49042;47.318;19.874;2024-01-15T14:44:19;98853.72;;;5.59;52.78
62942;BME280;49042;47.318;19.874;2024-01-15T14:47:22;98853.94;;;5.00;56.19
62942;BME280;49042;47.318;19.874;2024-01-15T14:50:26;98860.19;;;5.08;58.07
62942;BME280;49042;47.318;19.874;2024-01-15T14:53:27;98851.84;;;4.86;60.60
62942;BME280;49042;47.318;19.874;2024-01-15T14:56:29;98839.50;;;4.76;64.60
62942;BME280;49042;47.318;19.874;2024-01-15T14:59:31;98856.09;;;4.55;67.41
62942;BME280;49042;47.318;19.874;2024-01-15T15:02:34;98859.38;;;4.49;68.79
62942;BME280;49042;47.318;19.874;2024-01-15T15:05:36;98862.50;;;4.38;70.98
62942;BME280;49042;47.318;19.874;2024-01-15T15:08:38;98870.97;;;4.06;70.66
62942;BME280;49042;47.318;19.874;2024-01-15T15:11:40;98872.16;;;3.89;75.05
62942;BME280;49042;47.318;19.874;2024-01-15T15:14:42;98871.13;;;3.83;79.08
62942;BME280;49042;47.318;19.874;2024-01-15T15:18:00;98877.88;;;4.06;76.76
62942;BME280;49042;47.318;19.874;2024-01-15T15:21:03;98878.72;;;4.06;76.30
62942;BME280;49042;47.318;19.874;2024-01-15T15:24:05;98891.31;;;3.95;80.03
62942;BME280;49042;47.318;19.874;2024-01-15T15:27:07;98879.66;;;4.09;79.86
62942;BME280;49042;47.318;19.874;2024-01-15T15:30:09;98884.28;;;4.19;77.39
62942;BME280;49042;47.318;19.874;2024-01-15T15:33:11;98880.47;;;4.06;80.61
62942;BME280;49042;47.318;19.874;2024-01-15T15:36:13;98881.97;;;3.99;81.59
62942;BME280;49042;47.318;19.874;2024-01-15T15:39:14;98864.63;;;3.95;84.01
62942;BME280;49042;47.318;19.874;2024-01-15T15:42:19;98856.47;;;3.82;85.92
62942;BME280;49042;47.318;19.874;2024-01-15T15:45:21;98845.62;;;3.93;86.40
62942;BME280;49042;47.318;19.874;2024-01-15T15:48:23;98860.22;;;3.92;86.10
62942;BME280;49042;47.318;19.874;2024-01-15T15:51:25;98864.69;;;3.70;88.75
62942;BME280;49042;47.318;19.874;2024-01-15T15:54:27;98856.88;;;3.16;94.99
62942;BME280;49042;47.318;19.874;2024-01-15T15:57:29;98885.97;;;3.38;95.34
62942;BME280;49042;47.318;19.874;2024-01-15T16:00:31;98896.31;;;3.40;98.02